createdAt,value
2022-09-11T00:00:20.973Z,22.05
2022-09-11T00:02:51.478Z,22.09
2022-09-11T00:05:21.650Z,22.12
2022-09-11T00:07:52.015Z,22.12
2022-09-11T00:10:21.972Z,22.18
2022-09-11T00:12:52.299Z,22.21
2022-09-11T00:15:22.016Z,22.26
2022-09-11T00:17:52.669Z,22.33
2022-09-11T00:20:22.835Z,22.38
2022-09-11T00:22:54.598Z,22.42
2022-09-11T00:25:24.910Z,22.49
2022-09-11T00:27:55.752Z,22.55
2022-09-11T00:30:26.107Z,22.60
2022-09-11T00:32:56.886Z,22.67
2022-09-11T00:35:27.425Z,22.71
2022-09-11T00:37:56.935Z,22.73
2022-09-11T00:40:26.978Z,22.74
2022-09-11T00:42:58.727Z,22.74
2022-09-11T00:45:30.269Z,22.72
2022-09-11T00:48:01.966Z,22.70
2022-09-11T00:50:34.300Z,22.68
2022-09-11T00:53:11.310Z,22.71
2022-09-11T00:55:48.997Z,22.74
2022-09-11T00:58:26.399Z,22.77
2022-09-11T01:00:58.639Z,22.80
2022-09-11T01:03:29.251Z,22.84
2022-09-11T01:06:00.457Z,22.88
2022-09-11T01:08:33.455Z,22.99
2022-09-11T01:11:23.678Z,23.10
2022-09-11T01:14:03.690Z,23.20
2022-09-11T01:16:50.632Z,23.29
2022-09-11T01:19:49.558Z,23.37
2022-09-11T01:22:55.350Z,23.49
2022-09-11T01:26:01.316Z,23.58
2022-09-11T01:28:54.656Z,23.69
2022-09-11T01:31:32.516Z,23.74
2022-09-11T01:34:12.041Z,23.77
2022-09-11T01:36:52.700Z,23.83
2022-09-11T01:39:27.547Z,23.90
2022-09-11T01:42:16.037Z,23.98
2022-09-11T01:44:53.851Z,24.06
2022-09-11T01:47:24.450Z,24.13
2022-09-11T01:50:08.774Z,24.18
2022-09-11T01:52:55.466Z,24.28
2022-09-11T01:55:42.633Z,24.35
2022-09-11T01:58:20.210Z,24.46
2022-09-11T02:00:55.588Z,24.55
2022-09-11T02:03:36.846Z,24.60
2022-09-11T02:06:20.223Z,24.67
2022-09-11T02:08:59.879Z,24.74
2022-09-11T02:11:38.761Z,24.81
2022-09-11T02:14:31.245Z,24.86
2022-09-11T02:17:08.139Z,24.83
2022-09-11T02:19:40.304Z,24.85
2022-09-11T02:22:10.791Z,24.87
2022-09-11T02:24:41.214Z,24.97
2022-09-11T02:27:33.417Z,25.03
2022-09-11T02:30:04.048Z,25.07
2022-09-11T02:32:40.739Z,25.13
2022-09-11T02:35:14.039Z,25.22
2022-09-11T02:38:19.916Z,25.27
2022-09-11T02:41:16.013Z,25.32
2022-09-11T02:44:05.129Z,25.35
2022-09-11T02:46:55.605Z,25.34
2022-09-11T02:49:45.827Z,25.35
2022-09-11T02:52:22.199Z,25.36
2022-09-11T02:54:59.367Z,25.39
2022-09-11T02:57:42.226Z,25.44
2022-09-11T03:00:15.119Z,25.52
2022-09-11T03:02:46.915Z,25.60
2022-09-11T03:05:18.760Z,25.62
2022-09-11T03:07:49.456Z,25.64
2022-09-11T03:10:20.357Z,25.59
2022-09-11T03:12:50.448Z,25.60
2022-09-11T03:15:22.070Z,25.61
2022-09-11T03:17:52.321Z,25.64
2022-09-11T03:20:23.796Z,25.70
2022-09-11T03:22:54.123Z,25.77
2022-09-11T03:25:29.601Z,25.82
2022-09-11T03:28:02.498Z,25.87
2022-09-11T03:30:37.300Z,25.88
2022-09-11T03:33:07.689Z,25.92
2022-09-11T03:35:38.446Z,25.99
2022-09-11T03:38:08.561Z,26.02
2022-09-11T03:40:41.306Z,26.07
2022-09-11T03:43:13.396Z,26.09
2022-09-11T03:45:44.214Z,26.09
2022-09-11T03:48:15.190Z,26.10
2022-09-11T03:50:47.524Z,26.07
2022-09-11T03:53:17.939Z,26.06
2022-09-11T03:55:51.350Z,26.11
2022-09-11T03:58:21.982Z,26.12
2022-09-11T04:00:52.064Z,26.14
2022-09-11T04:03:22.089Z,26.15
2022-09-11T04:06:03.465Z,26.17
2022-09-11T04:08:36.427Z,26.17
2022-09-11T04:11:08.419Z,26.18
2022-09-11T04:13:41.625Z,26.23
2022-09-11T04:16:18.269Z,26.26
2022-09-11T04:18:55.317Z,26.30
2022-09-11T04:21:27.079Z,26.32
2022-09-11T04:24:02.042Z,26.32
2022-09-11T04:26:34.919Z,26.35
2022-09-11T04:29:19.446Z,26.37
2022-09-11T04:31:50.849Z,26.41
2022-09-11T04:34:24.076Z,26.44
2022-09-11T04:36:54.054Z,26.47
2022-09-11T04:39:25.473Z,26.48
2022-09-11T04:41:56.614Z,26.50
2022-09-11T04:44:28.435Z,26.57
2022-09-11T04:46:59.481Z,26.61
2022-09-11T04:49:29.736Z,26.67
2022-09-11T04:52:04.085Z,26.71
2022-09-11T04:54:38.174Z,26.73
2022-09-11T04:57:11.902Z,26.76
2022-09-11T04:59:41.892Z,26.80
2022-09-11T05:02:15.407Z,26.79
2022-09-11T05:04:50.270Z,26.80
2022-09-11T05:07:21.463Z,26.82
2022-09-11T05:09:57.133Z,26.83
2022-09-11T05:12:27.177Z,26.88
2022-09-11T05:14:57.182Z,26.87
2022-09-11T05:17:27.810Z,26.89
2022-09-11T05:19:58.136Z,26.91
2022-09-11T05:22:29.039Z,26.93
2022-09-11T05:25:01.277Z,26.97
2022-09-11T05:27:32.619Z,26.99
2022-09-11T05:30:04.812Z,27.01
2022-09-11T05:32:35.917Z,27.05
2022-09-11T05:35:06.577Z,27.05
2022-09-11T05:37:37.921Z,27.04
2022-09-11T05:40:09.252Z,27.04
2022-09-11T05:42:40.024Z,27.04
2022-09-11T05:45:11.641Z,27.07
2022-09-11T05:47:41.848Z,27.06
2022-09-11T05:50:12.118Z,27.08
2022-09-11T05:52:43.844Z,27.07
2022-09-11T05:55:14.055Z,27.11
2022-09-11T05:57:44.186Z,27.12
2022-09-11T06:00:16.163Z,27.15
2022-09-11T06:02:52.565Z,27.17
2022-09-11T06:05:24.813Z,27.22
2022-09-11T06:07:56.103Z,27.26
2022-09-11T06:10:27.565Z,27.30
2022-09-11T06:12:57.775Z,27.33
2022-09-11T06:15:45.543Z,27.39
2022-09-11T06:18:18.920Z,27.45
2022-09-11T06:21:08.463Z,27.50
2022-09-11T06:23:46.974Z,27.53
2022-09-11T06:26:19.964Z,27.56
2022-09-11T06:28:50.691Z,27.59
2022-09-11T06:31:23.402Z,27.61
2022-09-11T06:33:55.816Z,27.63
2022-09-11T06:36:35.401Z,27.66
2022-09-11T06:39:09.928Z,27.66
2022-09-11T06:41:41.669Z,27.68
2022-09-11T06:44:16.601Z,27.69
2022-09-11T06:46:47.213Z,27.72
2022-09-11T06:49:17.550Z,27.73
2022-09-11T06:52:05.927Z,27.76
2022-09-11T06:54:36.118Z,27.82
2022-09-11T06:57:12.039Z,27.84
2022-09-11T06:59:42.147Z,27.88
2022-09-11T07:02:12.563Z,27.93
2022-09-11T07:04:42.959Z,27.96
2022-09-11T07:07:13.828Z,28.00
2022-09-11T07:09:45.807Z,28.04
2022-09-11T07:12:16.827Z,28.07
2022-09-11T07:14:48.153Z,28.09
2022-09-11T07:17:20.404Z,28.11
2022-09-11T07:19:53.948Z,28.17
2022-09-11T07:22:24.536Z,28.21
2022-09-11T07:24:57.786Z,28.24
2022-09-11T07:27:29.372Z,28.26
2022-09-11T07:30:04.223Z,28.28
2022-09-11T07:32:39.241Z,28.31
2022-09-11T07:35:13.843Z,28.33
2022-09-11T07:37:50.640Z,28.32
2022-09-11T07:40:22.926Z,28.36
2022-09-11T07:42:54.777Z,28.38
2022-09-11T07:45:26.926Z,28.40
2022-09-11T07:47:58.954Z,28.44
2022-09-11T07:50:30.826Z,28.46
2022-09-11T07:53:03.031Z,28.49
2022-09-11T07:55:36.389Z,28.49
2022-09-11T07:58:07.495Z,28.52
2022-09-11T08:00:38.945Z,28.55
2022-09-11T08:03:18.808Z,28.55
2022-09-11T08:05:50.396Z,28.57
2022-09-11T08:08:21.537Z,28.58
2022-09-11T08:10:52.918Z,28.59
2022-09-11T08:13:23.938Z,28.60
2022-09-11T08:15:56.300Z,28.60
2022-09-11T08:18:27.413Z,28.63
2022-09-11T08:21:04.709Z,28.64
2022-09-11T08:23:37.356Z,28.64
2022-09-11T08:26:27.822Z,28.63
2022-09-11T08:29:01.415Z,28.62
2022-09-11T08:31:36.623Z,28.62
2022-09-11T08:34:07.010Z,28.59
2022-09-11T08:36:38.585Z,28.56
2022-09-11T08:39:10.605Z,28.54
2022-09-11T08:41:50.367Z,28.55
2022-09-11T08:44:30.807Z,28.51
2022-09-11T08:47:40.873Z,28.47
2022-09-11T08:50:25.931Z,28.44
2022-09-11T08:52:57.829Z,28.40
2022-09-11T08:55:38.208Z,28.39
2022-09-11T08:58:19.603Z,28.33
2022-09-11T09:01:05.932Z,28.31
2022-09-11T09:03:52.458Z,28.26
2022-09-11T09:06:23.078Z,28.20
2022-09-11T09:09:20.510Z,28.17
2022-09-11T09:12:18.016Z,28.12
2022-09-11T09:15:35.775Z,28.07
2022-09-11T09:18:39.248Z,28.04
2022-09-11T09:21:51.779Z,27.98
2022-09-11T09:24:22.913Z,27.94
2022-09-11T09:26:58.878Z,27.89
2022-09-11T09:29:38.421Z,27.84
2022-09-11T09:32:22.576Z,27.82
2022-09-11T09:34:58.966Z,27.79
2022-09-11T09:37:30.797Z,27.74
2022-09-11T09:40:10.502Z,27.72
2022-09-11T09:43:06.546Z,27.68
2022-09-11T09:45:40.821Z,27.65
2022-09-11T09:48:13.396Z,27.62
2022-09-11T09:50:48.438Z,27.55
2022-09-11T09:53:44.789Z,27.50
2022-09-11T09:56:19.004Z,27.42
2022-09-11T09:58:57.936Z,27.39
2022-09-11T10:01:51.517Z,27.35
2022-09-11T10:04:28.448Z,27.29
2022-09-11T10:07:28.408Z,27.24
2022-09-11T10:10:05.213Z,27.18
2022-09-11T10:12:37.160Z,27.14
2022-09-11T10:15:08.322Z,27.08
2022-09-11T10:17:39.673Z,27.01
2022-09-11T10:20:28.363Z,26.97
2022-09-11T10:22:58.482Z,26.90
2022-09-11T10:25:31.274Z,26.87
2022-09-11T10:28:07.028Z,26.81
2022-09-11T10:31:04.757Z,26.75
2022-09-11T10:33:36.838Z,26.69
2022-09-11T10:36:12.197Z,26.64
2022-09-11T10:38:51.868Z,26.59
2022-09-11T10:41:23.689Z,26.55
2022-09-11T10:44:02.813Z,26.49
2022-09-11T10:46:40.825Z,26.44
2022-09-11T10:49:24.077Z,26.38
2022-09-11T10:52:10.954Z,26.33
2022-09-11T10:55:08.300Z,26.31
2022-09-11T10:57:49.574Z,26.27
2022-09-11T11:00:25.471Z,26.24
2022-09-11T11:03:24.532Z,26.20
2022-09-11T11:06:21.590Z,26.17
2022-09-11T11:09:21.424Z,26.16
2022-09-11T11:12:13.568Z,26.13
2022-09-11T11:15:18.569Z,26.09
2022-09-11T11:18:07.913Z,26.06
2022-09-11T11:20:46.988Z,26.03
2022-09-11T11:23:42.623Z,25.98
2022-09-11T11:26:31.479Z,25.96
2022-09-11T11:29:46.539Z,25.93
2022-09-11T11:32:30.514Z,25.90
2022-09-11T11:35:13.902Z,25.83
2022-09-11T11:37:47.004Z,25.80
2022-09-11T11:40:22.597Z,25.75
2022-09-11T11:42:58.089Z,25.67
2022-09-11T11:45:34.339Z,25.66
2022-09-11T11:48:14.766Z,25.66
2022-09-11T11:50:52.523Z,25.61
2022-09-11T11:53:37.208Z,25.62
2022-09-11T11:56:17.036Z,25.60
2022-09-11T11:59:02.063Z,25.57
2022-09-11T12:01:43.399Z,25.53
2022-09-11T12:04:25.898Z,25.48
2022-09-11T12:06:56.062Z,25.46
2022-09-11T12:09:29.252Z,25.46
2022-09-11T12:12:08.175Z,25.44
2022-09-11T12:14:39.654Z,25.42
2022-09-11T12:17:41.341Z,25.38
2022-09-11T12:20:14.082Z,25.36
2022-09-11T12:22:52.549Z,25.32
2022-09-11T12:25:22.975Z,25.30
2022-09-11T12:28:14.931Z,25.27
2022-09-11T12:31:18.767Z,25.25
2022-09-11T12:33:55.710Z,25.23
2022-09-11T12:36:25.693Z,25.20
2022-09-11T12:39:34.755Z,25.17
2022-09-11T12:42:27.544Z,25.12
2022-09-11T12:44:59.377Z,25.09
2022-09-11T12:47:43.924Z,25.08
2022-09-11T12:50:14.499Z,25.05
2022-09-11T12:53:03.863Z,25.04
2022-09-11T12:55:34.659Z,25.03
2022-09-11T12:58:27.621Z,25.00
2022-09-11T13:01:09.055Z,24.97
2022-09-11T13:03:42.124Z,24.94
2022-09-11T13:06:15.529Z,24.92
2022-09-11T13:08:57.516Z,24.91
2022-09-11T13:11:46.762Z,24.87
2022-09-11T13:14:31.356Z,24.85
2022-09-11T13:17:04.322Z,24.82
2022-09-11T13:19:37.471Z,24.80
2022-09-11T13:22:29.097Z,24.78
2022-09-11T13:25:16.096Z,24.76
2022-09-11T13:28:09.182Z,24.72
2022-09-11T13:30:50.147Z,24.68
2022-09-11T13:33:27.037Z,24.68
2022-09-11T13:36:04.112Z,24.63
2022-09-11T13:38:38.637Z,24.63
2022-09-11T13:41:23.169Z,24.60
2022-09-11T13:43:58.997Z,24.56
2022-09-11T13:46:33.812Z,24.58
2022-09-11T13:49:14.097Z,24.57
2022-09-11T13:51:49.374Z,24.54
2022-09-11T13:54:33.803Z,24.51
2022-09-11T13:57:05.562Z,24.50
2022-09-11T13:59:45.182Z,24.48
2022-09-11T14:02:48.948Z,24.46
2022-09-11T14:05:27.960Z,24.46
2022-09-11T14:08:09.622Z,24.46
2022-09-11T14:10:46.148Z,24.46
2022-09-11T14:13:37.387Z,24.45
2022-09-11T14:16:12.729Z,24.43
2022-09-11T14:18:48.384Z,24.44
2022-09-11T14:21:40.899Z,24.44
2022-09-11T14:24:31.781Z,24.45
2022-09-11T14:27:25.299Z,24.42
2022-09-11T14:29:57.212Z,24.44
2022-09-11T14:32:40.609Z,24.42
2022-09-11T14:35:15.216Z,24.40
2022-09-11T14:37:51.278Z,24.37
2022-09-11T14:40:22.610Z,24.38
2022-09-11T14:42:54.997Z,24.39
2022-09-11T14:45:27.467Z,24.39
2022-09-11T14:47:57.922Z,24.39
2022-09-11T14:50:29.724Z,24.39
2022-09-11T14:53:03.037Z,24.42
2022-09-11T14:55:33.776Z,24.40
2022-09-11T14:58:05.377Z,24.42
2022-09-11T15:00:36.090Z,24.42
2022-09-11T15:03:06.809Z,24.43
2022-09-11T15:05:37.295Z,24.42
2022-09-11T15:08:12.340Z,24.39
2022-09-11T15:10:42.974Z,24.37
2022-09-11T15:13:14.916Z,24.36
2022-09-11T15:15:46.761Z,24.36
2022-09-11T15:18:18.971Z,24.37
2022-09-11T15:20:49.835Z,24.38
2022-09-11T15:23:21.328Z,24.36
2022-09-11T15:25:52.170Z,24.37
2022-09-11T15:28:23.405Z,24.36
2022-09-11T15:31:05.766Z,24.36
2022-09-11T15:33:37.051Z,24.35
2022-09-11T15:36:09.933Z,24.34
2022-09-11T15:38:43.111Z,24.31
2022-09-11T15:41:13.838Z,24.34
2022-09-11T15:43:46.696Z,24.32
2022-09-11T15:46:18.011Z,24.32
2022-09-11T15:48:50.527Z,24.31
2022-09-11T15:51:25.696Z,24.28
2022-09-11T15:54:00.433Z,24.27
2022-09-11T15:56:32.219Z,24.25
2022-09-11T15:59:03.109Z,24.24
2022-09-11T16:01:38.803Z,24.24
2022-09-11T16:04:12.424Z,24.23
2022-09-11T16:06:46.967Z,24.21
2022-09-11T16:09:26.347Z,24.23
2022-09-11T16:11:58.844Z,24.22
2022-09-11T16:14:35.377Z,24.22
2022-09-11T16:17:08.184Z,24.21
2022-09-11T16:19:40.240Z,24.19
2022-09-11T16:22:11.657Z,24.21
2022-09-11T16:24:44.144Z,24.22
2022-09-11T16:27:14.958Z,24.18
2022-09-11T16:32:40.758Z,24.15
2022-09-11T16:35:14.915Z,24.14
2022-09-11T16:37:45.813Z,24.12
2022-09-11T16:40:16.573Z,24.11
2022-09-11T16:42:47.606Z,24.10
2022-09-11T16:45:18.143Z,24.10
2022-09-11T16:47:49.446Z,24.12
2022-09-11T16:50:20.362Z,24.10
2022-09-11T16:52:52.503Z,24.11
2022-09-11T16:55:23.578Z,24.12
2022-09-11T16:57:53.946Z,24.11
2022-09-11T17:00:24.287Z,24.10
2022-09-11T17:02:58.135Z,24.07
2022-09-11T17:05:28.603Z,24.10
2022-09-11T17:08:00.144Z,24.06
2022-09-11T17:10:30.450Z,24.07
2022-09-11T17:13:01.197Z,24.06
2022-09-11T17:15:36.165Z,24.03
2022-09-11T17:18:06.574Z,24.03
2022-09-11T17:20:37.043Z,24.03
2022-09-11T17:23:08.864Z,24.03
2022-09-11T17:25:43.089Z,24.04
2022-09-11T17:28:13.303Z,24.02
2022-09-11T17:30:43.349Z,24.03
2022-09-11T17:33:13.701Z,24.00
2022-09-11T17:35:45.175Z,24.00
2022-09-11T17:38:15.395Z,23.98
2022-09-11T17:40:45.397Z,23.96
2022-09-11T17:43:15.496Z,23.97
2022-09-11T17:45:45.499Z,23.98
2022-09-11T17:48:16.146Z,23.97
2022-09-11T17:50:46.410Z,23.96
2022-09-11T17:53:18.687Z,23.96
2022-09-11T17:55:50.086Z,23.95
2022-09-11T17:58:20.112Z,23.94
2022-09-11T18:00:50.701Z,23.93
2022-09-11T18:03:24.140Z,23.93
2022-09-11T18:05:54.188Z,23.91
2022-09-11T18:08:27.671Z,23.92
2022-09-11T18:11:00.899Z,23.91
2022-09-11T18:13:33.056Z,23.92
2022-09-11T18:16:08.490Z,23.91
2022-09-11T18:18:41.583Z,23.88
2022-09-11T18:21:13.548Z,23.89
2022-09-11T18:23:45.976Z,23.87
2022-09-11T18:26:31.371Z,23.86
2022-09-11T18:29:07.402Z,23.85
2022-09-11T18:31:42.650Z,23.82
2022-09-11T18:34:12.969Z,23.80
2022-09-11T18:36:44.420Z,23.79
2022-09-11T18:39:16.774Z,23.79
2022-09-11T18:41:48.352Z,23.79
2022-09-11T18:44:21.739Z,23.78
2022-09-11T18:46:55.632Z,23.77
2022-09-11T18:49:26.070Z,23.73
2022-09-11T18:51:56.820Z,23.72
2022-09-11T18:54:28.891Z,23.72
2022-09-11T18:57:00.250Z,23.71
2022-09-11T18:59:30.478Z,23.68
2022-09-11T19:02:00.855Z,23.69
2022-09-11T19:04:31.295Z,23.68
2022-09-11T19:07:02.322Z,23.67
2022-09-11T19:09:32.436Z,23.65
2022-09-11T19:12:05.080Z,23.65
2022-09-11T19:14:37.161Z,23.62
2022-09-11T19:17:07.256Z,23.61
2022-09-11T19:19:37.455Z,23.60
2022-09-11T19:22:07.638Z,23.56
2022-09-11T19:24:37.669Z,23.57
2022-09-11T19:27:07.758Z,23.55
2022-09-11T19:29:38.850Z,23.55
2022-09-11T19:32:09.566Z,23.54
2022-09-11T19:34:47.166Z,23.52
2022-09-11T19:37:18.199Z,23.48
2022-09-11T19:39:53.129Z,23.49
2022-09-11T19:42:23.127Z,23.48
2022-09-11T19:44:56.192Z,23.48
2022-09-11T19:47:26.864Z,23.46
2022-09-11T19:49:56.971Z,23.46
2022-09-11T19:52:29.787Z,23.43
2022-09-11T19:55:03.079Z,23.41
2022-09-11T19:57:33.298Z,23.41
2022-09-11T20:00:03.929Z,23.37
2022-09-11T20:02:35.082Z,23.36
2022-09-11T20:05:05.392Z,23.35
2022-09-11T20:07:35.449Z,23.31
2022-09-11T20:10:08.431Z,23.29
2022-09-11T20:12:39.345Z,23.26
2022-09-11T20:15:11.885Z,23.23
2022-09-11T20:17:45.628Z,23.19
2022-09-11T20:20:16.091Z,23.17
2022-09-11T20:22:46.910Z,23.14
2022-09-11T20:25:17.669Z,23.12
2022-09-11T20:27:47.908Z,23.11
2022-09-11T20:30:18.461Z,23.06
2022-09-11T20:32:48.668Z,23.04
2022-09-11T20:35:18.950Z,23.03
2022-09-11T20:37:50.068Z,23.00
2022-09-11T20:40:20.857Z,22.94
2022-09-11T20:42:51.027Z,22.95
2022-09-11T20:45:21.441Z,22.91
2022-09-11T20:47:51.375Z,22.89
2022-09-11T20:50:21.332Z,22.87
2022-09-11T20:52:52.243Z,22.86
2022-09-11T20:55:22.938Z,22.83
2022-09-11T20:57:53.140Z,22.81
2022-09-11T21:00:23.494Z,22.79
2022-09-11T21:02:53.787Z,22.78
2022-09-11T21:05:23.860Z,22.74
2022-09-11T21:07:53.848Z,22.76
2022-09-11T21:10:23.819Z,22.73
2022-09-11T21:12:53.851Z,22.72
2022-09-11T21:15:23.962Z,22.71
2022-09-11T21:17:54.472Z,22.68
2022-09-11T21:20:25.047Z,22.67
2022-09-11T21:22:55.522Z,22.64
2022-09-11T21:25:26.705Z,22.63
2022-09-11T21:27:57.231Z,22.60
2022-09-11T21:30:27.507Z,22.61
2022-09-11T21:32:57.200Z,22.59
2022-09-11T21:35:27.220Z,22.57
2022-09-11T21:37:57.241Z,22.54
2022-09-11T21:40:27.443Z,22.52
2022-09-11T21:42:57.717Z,22.49
2022-09-11T21:45:27.678Z,22.49
2022-09-11T21:47:57.650Z,22.47
2022-09-11T21:50:27.807Z,22.48
2022-09-11T21:52:57.930Z,22.46
2022-09-11T21:55:29.342Z,22.48
2022-09-11T21:58:00.905Z,22.48
2022-09-11T22:00:31.184Z,22.48
2022-09-11T22:03:01.188Z,22.48
2022-09-11T22:05:31.178Z,22.48
2022-09-11T22:08:01.683Z,22.48
2022-09-11T22:10:32.354Z,22.47
2022-09-11T22:13:03.294Z,22.47
2022-09-11T22:15:33.610Z,22.47
2022-09-11T22:18:03.712Z,22.48
2022-09-11T22:20:33.772Z,22.48
2022-09-11T22:23:03.822Z,22.47
2022-09-11T22:25:35.074Z,22.49
2022-09-11T22:28:08.553Z,22.49
2022-09-11T22:30:43.765Z,22.52
2022-09-11T22:33:14.078Z,22.51
2022-09-11T22:35:49.470Z,22.52
2022-09-11T22:38:19.401Z,22.53
2022-09-11T22:40:55.089Z,22.55
2022-09-11T22:43:25.282Z,22.53
2022-09-11T22:45:55.773Z,22.54
2022-09-11T22:48:26.988Z,22.56
2022-09-11T22:50:58.807Z,22.58
2022-09-11T22:53:32.872Z,22.61
2022-09-11T22:56:03.911Z,22.63
2022-09-11T22:58:34.886Z,22.65
2022-09-11T23:01:08.172Z,22.68
2022-09-11T23:03:39.137Z,22.72
2022-09-11T23:06:29.866Z,22.74
2022-09-11T23:09:01.710Z,22.77
2022-09-11T23:11:32.378Z,22.80
2022-09-11T23:14:02.535Z,22.83
2022-09-11T23:16:33.414Z,22.87
2022-09-11T23:19:06.498Z,22.91
2022-09-11T23:21:38.441Z,22.95
2022-09-11T23:24:11.803Z,22.98
2022-09-11T23:26:42.939Z,23.01
2022-09-11T23:29:14.554Z,23.05
2022-09-11T23:31:46.330Z,23.10
2022-09-11T23:34:18.701Z,23.13
2022-09-11T23:36:48.912Z,23.14
2022-09-11T23:39:20.070Z,23.19
2022-09-11T23:41:50.782Z,23.22
2022-09-11T23:44:21.028Z,23.24
2022-09-11T23:46:51.346Z,23.29
2022-09-11T23:49:21.861Z,23.32
2022-09-11T23:51:57.511Z,23.35
2022-09-11T23:54:28.637Z,23.39
2022-09-11T23:56:58.901Z,23.44
2022-09-11T23:59:29.769Z,23.47
